Roadside, Pennsylvania
Current Conditions -  °F | °C
As of 4:53 PM on Sunday 25 Jan 2015 (Local Time) from KRYT Reporting Station
Overcast Overcast  
Wind Chill:   Ceiling: 4200
Heat Index:   Visibility: 10mi
Dew Point: -1°   Wind: 0mph
Humidity: 73%   Direction: NA
Pressure: 29.79"   Gusts: NA
Location:  39.7777°N, 77.5693°W
Report Text: KRYT 252153Z AUTO 00000KT 10SM BKN042 BKN050 OVC070 03/M01 A2979 RMK AO2 SLP098 T00331011 $
Loading
Personal Weather Stations






























Interactive Weather Map New forecast layout! Learn more

10-Day Weather Forecast

Advertisements
Track Severe Weather on mobile